Clam Gulch, AK (99568)

10:23 AM AKST on February 01, 2015 (GMT -0900)
Ninilchik - Autumn Gold | Change Station
CLOSE
Current Station
Personal Weather Station
Location: Ninilchik, AK
Elevation: 148 ft
Nearby Weather Stations

Elev 148 ft 60.10 °N, 151.61 °W | Updated 8 minutes ago

Clear
Clear
23.2 °F
Feels Like 13 °F
N
9.0
Wind Variable Wind from NNE

Today
High -- | Low -- °F
--% Chance of Precip.
Yesterday
High -- | Low -- °F
Precip. -- in
9:20 AM 5:18 PM
Waxing Gibbous, 96% visible
Pressure 30.09 in
Visibility 10.0 miles
Clouds Clear
Windchill 13 °F
Dew Point 17 °F
Humidity 76%
Rainfall 0.00 in
Snow Depth Not available.
UV 0 out of 12
Pollen Not available.
Air Quality Not available.
Flu Activity Not available.
METAR PASX 011916Z AUTO 06004KT 10SM CLR M17/M19 A3009 RMK AO1

More Conditions Fewer Conditions

Pressure 30.09 in
Visibility 10.0 miles
Clouds Clear
Windchill 13 °F
Dew Point 17 °F
Humidity 76%
Rainfall 0.00 in
Snow Depth Not available.
UV 0 out of 12
Pollen Not available.
Air Quality Not available.
Flu Activity Not available.
METAR PASX 011916Z AUTO 06004KT 10SM CLR M17/M19 A3009 RMK AO1

More Conditions Fewer Conditions

10-Day Weather Forecast

Almanac

Astronomy

Feb. 01, 2015 Rise Set
Actual Time
Civil Twilight
Nautical Twilight
Astronomical Twilight
Moon
Length of Visible Light
Length of Day
Tomorrow will be .
, % of the Moon is Illuminated

Today's Extremes

State Highs State Lows

Community

WunderPhotos

Upload Photos

1,792,461 photos uploaded!

WunderBlogs® & News

Nearby

Air Quality

  Air Quality AQ Index Pollutant
Not available.

Snow Depth

Station Depth Elevation

Earthquake Activity

City Distance Mag. Time & Date
Minimum magnitude displayed is 2.5.

Coastal Water Temperatures

Place Temperature

Nearby Weather Stations